sensor_id;sensor_type;location;lat;lon;timestamp;P1;durP1;ratioP1;P2;durP2;ratioP2
70467;SDS011;57934;51.532;7.684;2023-05-10T00:02:15;8.73;;;6.20;;
70467;SDS011;57934;51.532;7.684;2023-05-10T00:04:41;9.40;;;5.57;;
70467;SDS011;57934;51.532;7.684;2023-05-10T00:07:07;9.45;;;5.00;;
70467;SDS011;57934;51.532;7.684;2023-05-10T00:09:33;9.35;;;5.60;;
70467;SDS011;57934;51.532;7.684;2023-05-10T00:11:59;11.15;;;5.82;;
70467;SDS011;57934;51.532;7.684;2023-05-10T00:14:25;8.80;;;5.78;;
70467;SDS011;57934;51.532;7.684;2023-05-10T00:16:52;6.80;;;5.28;;
70467;SDS011;57934;51.532;7.684;2023-05-10T00:19:18;6.70;;;4.78;;
70467;SDS011;57934;51.532;7.684;2023-05-10T00:21:44;8.75;;;4.18;;
70467;SDS011;57934;51.532;7.684;2023-05-10T00:24:10;5.78;;;4.10;;
70467;SDS011;57934;51.532;7.684;2023-05-10T00:26:36;5.30;;;3.40;;
70467;SDS011;57934;51.532;7.684;2023-05-10T00:29:02;4.45;;;3.33;;
70467;SDS011;57934;51.532;7.684;2023-05-10T00:31:28;5.20;;;3.58;;
70467;SDS011;57934;51.532;7.684;2023-05-10T00:33:57;3.63;;;3.33;;
70467;SDS011;57934;51.532;7.684;2023-05-10T00:36:23;4.78;;;3.50;;
70467;SDS011;57934;51.532;7.684;2023-05-10T00:38:49;4.55;;;3.40;;
70467;SDS011;57934;51.532;7.684;2023-05-10T00:41:15;5.60;;;3.75;;
70467;SDS011;57934;51.532;7.684;2023-05-10T00:43:43;4.13;;;3.50;;
70467;SDS011;57934;51.532;7.684;2023-05-10T00:46:09;5.32;;;3.72;;
70467;SDS011;57934;51.532;7.684;2023-05-10T00:48:37;8.43;;;4.00;;
70467;SDS011;57934;51.532;7.684;2023-05-10T00:51:04;6.35;;;4.65;;
70467;SDS011;57934;51.532;7.684;2023-05-10T00:53:31;5.00;;;4.40;;
70467;SDS011;57934;51.532;7.684;2023-05-10T00:55:59;9.07;;;4.57;;
70467;SDS011;57934;51.532;7.684;2023-05-10T00:58:25;5.90;;;5.28;;
70467;SDS011;57934;51.532;7.684;2023-05-10T01:00:56;6.88;;;5.90;;
70467;SDS011;57934;51.532;7.684;2023-05-10T01:03:24;7.75;;;5.60;;
70467;SDS011;57934;51.532;7.684;2023-05-10T01:05:51;8.45;;;6.53;;
70467;SDS011;57934;51.532;7.684;2023-05-10T01:08:17;8.02;;;6.40;;
70467;SDS011;57934;51.532;7.684;2023-05-10T01:10:44;7.57;;;6.53;;
70467;SDS011;57934;51.532;7.684;2023-05-10T01:13:11;7.60;;;6.53;;
70467;SDS011;57934;51.532;7.684;2023-05-10T01:15:39;7.85;;;6.70;;
70467;SDS011;57934;51.532;7.684;2023-05-10T01:18:06;10.60;;;6.80;;
70467;SDS011;57934;51.532;7.684;2023-05-10T01:20:35;11.60;;;6.93;;
70467;SDS011;57934;51.532;7.684;2023-05-10T01:34:25;15.48;;;9.45;;
70467;SDS011;57934;51.532;7.684;2023-05-10T01:37:04;15.80;;;9.18;;
70467;SDS011;57934;51.532;7.684;2023-05-10T01:39:40;13.15;;;9.05;;
70467;SDS011;57934;51.532;7.684;2023-05-10T01:42:16;19.00;;;9.88;;
70467;SDS011;57934;51.532;7.684;2023-05-10T01:44:48;19.77;;;10.73;;
70467;SDS011;57934;51.532;7.684;2023-05-10T01:47:25;19.50;;;10.88;;
70467;SDS011;57934;51.532;7.684;2023-05-10T01:49:54;18.10;;;10.88;;
70467;SDS011;57934;51.532;7.684;2023-05-10T01:52:36;21.25;;;11.43;;
70467;SDS011;57934;51.532;7.684;2023-05-10T01:55:11;19.15;;;12.10;;
70467;SDS011;57934;51.532;7.684;2023-05-10T01:57:42;21.25;;;11.98;;
70467;SDS011;57934;51.532;7.684;2023-05-10T02:00:10;22.27;;;11.48;;
70467;SDS011;57934;51.532;7.684;2023-05-10T02:02:42;20.27;;;12.18;;
70467;SDS011;57934;51.532;7.684;2023-05-10T02:05:12;19.88;;;12.48;;
70467;SDS011;57934;51.532;7.684;2023-05-10T02:07:41;22.20;;;12.70;;
70467;SDS011;57934;51.532;7.684;2023-05-10T02:10:09;24.17;;;14.70;;
70467;SDS011;57934;51.532;7.684;2023-05-10T02:12:37;22.98;;;13.80;;
70467;SDS011;57934;51.532;7.684;2023-05-10T02:15:07;20.63;;;13.13;;
70467;SDS011;57934;51.532;7.684;2023-05-10T02:17:37;20.60;;;14.30;;
70467;SDS011;57934;51.532;7.684;2023-05-10T02:20:04;23.27;;;14.50;;
70467;SDS011;57934;51.532;7.684;2023-05-10T02:22:32;22.08;;;13.93;;
70467;SDS011;57934;51.532;7.684;2023-05-10T02:25:00;24.20;;;14.05;;
70467;SDS011;57934;51.532;7.684;2023-05-10T02:27:28;21.92;;;13.07;;
70467;SDS011;57934;51.532;7.684;2023-05-10T02:29:56;24.73;;;14.98;;
70467;SDS011;57934;51.532;7.684;2023-05-10T02:32:24;27.15;;;14.25;;
70467;SDS011;57934;51.532;7.684;2023-05-10T02:34:52;25.13;;;14.50;;
70467;SDS011;57934;51.532;7.684;2023-05-10T02:37:20;28.80;;;14.05;;
70467;SDS011;57934;51.532;7.684;2023-05-10T02:39:47;23.27;;;12.68;;
70467;SDS011;57934;51.532;7.684;2023-05-10T02:42:16;18.00;;;9.95;;
70467;SDS011;57934;51.532;7.684;2023-05-10T02:44:48;12.63;;;7.38;;
70467;SDS011;57934;51.532;7.684;2023-05-10T02:47:17;12.60;;;7.20;;
70467;SDS011;57934;51.532;7.684;2023-05-10T02:49:44;11.27;;;7.05;;
70467;SDS011;57934;51.532;7.684;2023-05-10T02:52:10;11.15;;;5.88;;
70467;SDS011;57934;51.532;7.684;2023-05-10T02:54:43;7.85;;;5.00;;
70467;SDS011;57934;51.532;7.684;2023-05-10T02:57:14;10.02;;;5.50;;
70467;SDS011;57934;51.532;7.684;2023-05-10T02:59:45;6.82;;;3.90;;
70467;SDS011;57934;51.532;7.684;2023-05-10T03:02:14;6.25;;;3.78;;
70467;SDS011;57934;51.532;7.684;2023-05-10T03:04:41;6.30;;;3.33;;
70467;SDS011;57934;51.532;7.684;2023-05-10T03:07:07;5.95;;;2.67;;
70467;SDS011;57934;51.532;7.684;2023-05-10T03:09:34;3.60;;;2.25;;
70467;SDS011;57934;51.532;7.684;2023-05-10T03:12:11;3.03;;;2.20;;
70467;SDS011;57934;51.532;7.684;2023-05-10T03:20:09;5.80;;;1.90;;
70467;SDS011;57934;51.532;7.684;2023-05-10T03:22:40;3.42;;;2.00;;
70467;SDS011;57934;51.532;7.684;2023-05-10T03:25:12;2.25;;;1.75;;
70467;SDS011;57934;51.532;7.684;2023-05-10T03:27:43;2.78;;;1.75;;
70467;SDS011;57934;51.532;7.684;2023-05-10T03:30:13;3.95;;;1.70;;
70467;SDS011;57934;51.532;7.684;2023-05-10T03:32:40;2.88;;;1.65;;
70467;SDS011;57934;51.532;7.684;2023-05-10T03:35:10;1.67;;;1.58;;
70467;SDS011;57934;51.532;7.684;2023-05-10T03:37:38;3.22;;;1.40;;
70467;SDS011;57934;51.532;7.684;2023-05-10T03:40:05;3.35;;;1.42;;
70467;SDS011;57934;51.532;7.684;2023-05-10T03:42:33;2.47;;;1.33;;
70467;SDS011;57934;51.532;7.684;2023-05-10T03:45:00;1.92;;;1.70;;
70467;SDS011;57934;51.532;7.684;2023-05-10T03:47:26;4.60;;;1.60;;
70467;SDS011;57934;51.532;7.684;2023-05-10T03:49:52;3.58;;;2.00;;
70467;SDS011;57934;51.532;7.684;2023-05-10T03:52:18;4.72;;;2.63;;
70467;SDS011;57934;51.532;7.684;2023-05-10T03:54:44;4.30;;;2.80;;
70467;SDS011;57934;51.532;7.684;2023-05-10T03:57:10;3.38;;;3.05;;
70467;SDS011;57934;51.532;7.684;2023-05-10T03:59:37;4.55;;;3.53;;
70467;SDS011;57934;51.532;7.684;2023-05-10T04:02:03;6.47;;;4.03;;
70467;SDS011;57934;51.532;7.684;2023-05-10T04:04:29;7.97;;;4.55;;
70467;SDS011;57934;51.532;7.684;2023-05-10T04:06:55;7.25;;;5.07;;
70467;SDS011;57934;51.532;7.684;2023-05-10T04:09:21;9.50;;;5.38;;
70467;SDS011;57934;51.532;7.684;2023-05-10T04:11:47;11.00;;;7.57;;
70467;SDS011;57934;51.532;7.684;2023-05-10T04:14:14;14.43;;;7.70;;
70467;SDS011;57934;51.532;7.684;2023-05-10T04:16:40;11.65;;;7.78;;
70467;SDS011;57934;51.532;7.684;2023-05-10T04:19:06;11.68;;;8.70;;
70467;SDS011;57934;51.532;7.684;2023-05-10T04:21:32;14.85;;;8.70;;
70467;SDS011;57934;51.532;7.684;2023-05-10T04:23:58;10.38;;;8.35;;
70467;SDS011;57934;51.532;7.684;2023-05-10T04:26:24;10.52;;;7.15;;
70467;SDS011;57934;51.532;7.684;2023-05-10T04:28:51;12.07;;;7.57;;
70467;SDS011;57934;51.532;7.684;2023-05-10T04:31:17;12.13;;;6.88;;
70467;SDS011;57934;51.532;7.684;2023-05-10T04:33:43;11.73;;;7.15;;
70467;SDS011;57934;51.532;7.684;2023-05-10T04:36:09;12.23;;;7.03;;
70467;SDS011;57934;51.532;7.684;2023-05-10T04:38:35;11.93;;;7.28;;
70467;SDS011;57934;51.532;7.684;2023-05-10T04:41:08;12.48;;;7.85;;
70467;SDS011;57934;51.532;7.684;2023-05-10T04:43:36;10.43;;;7.50;;
70467;SDS011;57934;51.532;7.684;2023-05-10T04:46:03;16.55;;;10.02;;
70467;SDS011;57934;51.532;7.684;2023-05-10T04:48:30;14.35;;;9.50;;
70467;SDS011;57934;51.532;7.684;2023-05-10T04:50:56;13.45;;;8.82;;
70467;SDS011;57934;51.532;7.684;2023-05-10T04:53:22;19.75;;;12.25;;
70467;SDS011;57934;51.532;7.684;2023-05-10T04:55:48;18.88;;;11.48;;
70467;SDS011;57934;51.532;7.684;2023-05-10T04:58:15;17.48;;;11.80;;
70467;SDS011;57934;51.532;7.684;2023-05-10T05:00:41;23.83;;;13.27;;
70467;SDS011;57934;51.532;7.684;2023-05-10T05:03:07;18.33;;;12.45;;
70467;SDS011;57934;51.532;7.684;2023-05-10T05:05:34;21.50;;;13.95;;
70467;SDS011;57934;51.532;7.684;2023-05-10T05:08:00;23.98;;;13.50;;
70467;SDS011;57934;51.532;7.684;2023-05-10T05:10:26;31.15;;;14.80;;
70467;SDS011;57934;51.532;7.684;2023-05-10T05:12:52;26.67;;;15.70;;
70467;SDS011;57934;51.532;7.684;2023-05-10T05:15:18;28.98;;;16.70;;
70467;SDS011;57934;51.532;7.684;2023-05-10T05:17:44;30.92;;;16.67;;
70467;SDS011;57934;51.532;7.684;2023-05-10T05:20:10;38.33;;;17.40;;
70467;SDS011;57934;51.532;7.684;2023-05-10T05:22:37;35.85;;;17.90;;
70467;SDS011;57934;51.532;7.684;2023-05-10T05:25:03;36.17;;;17.42;;
70467;SDS011;57934;51.532;7.684;2023-05-10T05:27:30;33.47;;;16.92;;
70467;SDS011;57934;51.532;7.684;2023-05-10T05:29:57;32.20;;;16.88;;
70467;SDS011;57934;51.532;7.684;2023-05-10T05:32:23;36.63;;;18.25;;
70467;SDS011;57934;51.532;7.684;2023-05-10T05:34:50;37.25;;;18.23;;
70467;SDS011;57934;51.532;7.684;2023-05-10T05:37:17;27.75;;;17.13;;
70467;SDS011;57934;51.532;7.684;2023-05-10T05:39:44;36.63;;;19.17;;
70467;SDS011;57934;51.532;7.684;2023-05-10T05:42:11;35.58;;;17.90;;
70467;SDS011;57934;51.532;7.684;2023-05-10T05:44:39;33.90;;;18.13;;
70467;SDS011;57934;51.532;7.684;2023-05-10T05:47:05;33.58;;;18.67;;
70467;SDS011;57934;51.532;7.684;2023-05-10T05:49:31;36.40;;;19.95;;
70467;SDS011;57934;51.532;7.684;2023-05-10T05:51:58;37.45;;;20.85;;
70467;SDS011;57934;51.532;7.684;2023-05-10T05:54:26;42.92;;;22.50;;
70467;SDS011;57934;51.532;7.684;2023-05-10T05:56:57;41.38;;;22.05;;
70467;SDS011;57934;51.532;7.684;2023-05-10T05:59:23;40.00;;;22.27;;
70467;SDS011;57934;51.532;7.684;2023-05-10T06:01:50;47.00;;;24.00;;
70467;SDS011;57934;51.532;7.684;2023-05-10T06:04:16;42.50;;;23.77;;
70467;SDS011;57934;51.532;7.684;2023-05-10T06:06:43;44.05;;;25.05;;
70467;SDS011;57934;51.532;7.684;2023-05-10T06:09:09;43.88;;;24.27;;
70467;SDS011;57934;51.532;7.684;2023-05-10T06:11:36;48.00;;;26.77;;
70467;SDS011;57934;51.532;7.684;2023-05-10T06:14:02;47.85;;;26.25;;
70467;SDS011;57934;51.532;7.684;2023-05-10T06:16:30;45.28;;;24.50;;
70467;SDS011;57934;51.532;7.684;2023-05-10T06:18:56;52.17;;;25.67;;
70467;SDS011;57934;51.532;7.684;2023-05-10T06:21:22;49.92;;;25.42;;
70467;SDS011;57934;51.532;7.684;2023-05-10T06:23:49;48.28;;;27.17;;
70467;SDS011;57934;51.532;7.684;2023-05-10T06:26:15;57.42;;;28.73;;
70467;SDS011;57934;51.532;7.684;2023-05-10T06:28:41;55.05;;;29.10;;
70467;SDS011;57934;51.532;7.684;2023-05-10T06:31:07;54.08;;;30.40;;
70467;SDS011;57934;51.532;7.684;2023-05-10T06:33:33;48.60;;;28.40;;
70467;SDS011;57934;51.532;7.684;2023-05-10T06:35:59;48.13;;;28.38;;
70467;SDS011;57934;51.532;7.684;2023-05-10T06:38:26;53.45;;;29.67;;
70467;SDS011;57934;51.532;7.684;2023-05-10T06:40:52;59.90;;;31.05;;
70467;SDS011;57934;51.532;7.684;2023-05-10T06:43:18;57.97;;;31.92;;
70467;SDS011;57934;51.532;7.684;2023-05-10T06:45:44;58.42;;;29.95;;
70467;SDS011;57934;51.532;7.684;2023-05-10T06:48:10;54.38;;;28.70;;
70467;SDS011;57934;51.532;7.684;2023-05-10T06:50:36;57.20;;;30.42;;
70467;SDS011;57934;51.532;7.684;2023-05-10T06:53:02;55.35;;;29.75;;
70467;SDS011;57934;51.532;7.684;2023-05-10T06:55:29;54.67;;;30.73;;
70467;SDS011;57934;51.532;7.684;2023-05-10T06:57:55;59.50;;;32.40;;
70467;SDS011;57934;51.532;7.684;2023-05-10T07:00:21;54.22;;;31.50;;
70467;SDS011;57934;51.532;7.684;2023-05-10T07:02:47;53.63;;;30.85;;
70467;SDS011;57934;51.532;7.684;2023-05-10T07:05:13;52.22;;;29.95;;
70467;SDS011;57934;51.532;7.684;2023-05-10T07:07:40;55.60;;;30.77;;
70467;SDS011;57934;51.532;7.684;2023-05-10T07:10:07;58.40;;;31.23;;
70467;SDS011;57934;51.532;7.684;2023-05-10T07:12:33;62.85;;;32.17;;
70467;SDS011;57934;51.532;7.684;2023-05-10T07:14:59;63.55;;;33.15;;
70467;SDS011;57934;51.532;7.684;2023-05-10T07:17:25;61.70;;;30.92;;
70467;SDS011;57934;51.532;7.684;2023-05-10T07:19:51;65.82;;;32.17;;
70467;SDS011;57934;51.532;7.684;2023-05-10T07:22:18;68.93;;;33.72;;
70467;SDS011;57934;51.532;7.684;2023-05-10T07:24:44;66.50;;;33.72;;
70467;SDS011;57934;51.532;7.684;2023-05-10T07:27:11;65.10;;;33.70;;
70467;SDS011;57934;51.532;7.684;2023-05-10T07:29:38;67.30;;;34.35;;
70467;SDS011;57934;51.532;7.684;2023-05-10T07:32:05;76.03;;;35.30;;
70467;SDS011;57934;51.532;7.684;2023-05-10T07:34:31;68.03;;;35.00;;
70467;SDS011;57934;51.532;7.684;2023-05-10T07:36:58;62.15;;;32.75;;
70467;SDS011;57934;51.532;7.684;2023-05-10T07:39:26;64.20;;;33.33;;
70467;SDS011;57934;51.532;7.684;2023-05-10T07:41:53;68.72;;;34.08;;
70467;SDS011;57934;51.532;7.684;2023-05-10T07:44:19;52.70;;;31.83;;
70467;SDS011;57934;51.532;7.684;2023-05-10T07:46:46;55.08;;;31.42;;
70467;SDS011;57934;51.532;7.684;2023-05-10T07:49:13;46.10;;;29.52;;
70467;SDS011;57934;51.532;7.684;2023-05-10T07:51:39;45.72;;;28.63;;
70467;SDS011;57934;51.532;7.684;2023-05-10T07:54:05;46.88;;;28.80;;
70467;SDS011;57934;51.532;7.684;2023-05-10T07:56:31;39.45;;;28.25;;
70467;SDS011;57934;51.532;7.684;2023-05-10T07:58:58;46.08;;;28.48;;
70467;SDS011;57934;51.532;7.684;2023-05-10T08:01:26;47.35;;;28.98;;
70467;SDS011;57934;51.532;7.684;2023-05-10T08:03:55;39.30;;;26.88;;
70467;SDS011;57934;51.532;7.684;2023-05-10T08:06:21;40.30;;;27.23;;
70467;SDS011;57934;51.532;7.684;2023-05-10T08:08:47;39.75;;;27.70;;
70467;SDS011;57934;51.532;7.684;2023-05-10T08:11:16;36.40;;;25.80;;
70467;SDS011;57934;51.532;7.684;2023-05-10T08:13:43;34.40;;;24.85;;
70467;SDS011;57934;51.532;7.684;2023-05-10T08:16:10;35.80;;;24.83;;
70467;SDS011;57934;51.532;7.684;2023-05-10T08:18:37;32.70;;;23.00;;
70467;SDS011;57934;51.532;7.684;2023-05-10T08:21:03;33.70;;;23.45;;
70467;SDS011;57934;51.532;7.684;2023-05-10T08:23:30;29.20;;;22.33;;
70467;SDS011;57934;51.532;7.684;2023-05-10T08:25:56;33.92;;;23.00;;
70467;SDS011;57934;51.532;7.684;2023-05-10T08:28:22;29.42;;;22.10;;
70467;SDS011;57934;51.532;7.684;2023-05-10T08:30:49;30.17;;;23.77;;
70467;SDS011;57934;51.532;7.684;2023-05-10T08:33:17;30.73;;;22.75;;
70467;SDS011;57934;51.532;7.684;2023-05-10T08:35:44;33.65;;;22.75;;
70467;SDS011;57934;51.532;7.684;2023-05-10T08:38:10;41.03;;;23.60;;
70467;SDS011;57934;51.532;7.684;2023-05-10T08:40:36;32.40;;;22.58;;
70467;SDS011;57934;51.532;7.684;2023-05-10T08:43:09;30.83;;;21.80;;
70467;SDS011;57934;51.532;7.684;2023-05-10T08:45:40;28.45;;;21.08;;
70467;SDS011;57934;51.532;7.684;2023-05-10T08:48:08;27.98;;;20.95;;
70467;SDS011;57934;51.532;7.684;2023-05-10T08:50:36;31.38;;;22.17;;
70467;SDS011;57934;51.532;7.684;2023-05-10T08:53:09;31.08;;;21.10;;
70467;SDS011;57934;51.532;7.684;2023-05-10T08:55:37;29.88;;;21.00;;
70467;SDS011;57934;51.532;7.684;2023-05-10T08:58:04;30.98;;;19.08;;
70467;SDS011;57934;51.532;7.684;2023-05-10T09:00:33;34.05;;;20.67;;
70467;SDS011;57934;51.532;7.684;2023-05-10T09:02:59;34.25;;;20.00;;
70467;SDS011;57934;51.532;7.684;2023-05-10T09:05:26;32.30;;;21.13;;
70467;SDS011;57934;51.532;7.684;2023-05-10T09:07:54;31.63;;;20.27;;
70467;SDS011;57934;51.532;7.684;2023-05-10T09:10:20;22.95;;;17.70;;
70467;SDS011;57934;51.532;7.684;2023-05-10T09:12:47;25.67;;;16.83;;
70467;SDS011;57934;51.532;7.684;2023-05-10T09:15:14;20.70;;;15.95;;
70467;SDS011;57934;51.532;7.684;2023-05-10T09:17:42;20.50;;;16.65;;
70467;SDS011;57934;51.532;7.684;2023-05-10T09:20:09;24.27;;;17.85;;
70467;SDS011;57934;51.532;7.684;2023-05-10T09:22:36;22.98;;;16.30;;
70467;SDS011;57934;51.532;7.684;2023-05-10T09:25:07;25.15;;;17.15;;
70467;SDS011;57934;51.532;7.684;2023-05-10T09:27:34;23.27;;;14.85;;
70467;SDS011;57934;51.532;7.684;2023-05-10T09:30:01;24.52;;;15.90;;
70467;SDS011;57934;51.532;7.684;2023-05-10T09:32:38;19.33;;;14.48;;
70467;SDS011;57934;51.532;7.684;2023-05-10T09:37:36;15.80;;;12.15;;
70467;SDS011;57934;51.532;7.684;2023-05-10T09:40:05;18.15;;;11.10;;
70467;SDS011;57934;51.532;7.684;2023-05-10T09:42:33;16.30;;;10.30;;
70467;SDS011;57934;51.532;7.684;2023-05-10T09:45:01;14.52;;;10.30;;
70467;SDS011;57934;51.532;7.684;2023-05-10T09:47:31;13.27;;;9.88;;
70467;SDS011;57934;51.532;7.684;2023-05-10T09:49:59;18.17;;;11.25;;
70467;SDS011;57934;51.532;7.684;2023-05-10T09:52:48;16.50;;;12.13;;
70467;SDS011;57934;51.532;7.684;2023-05-10T09:55:17;18.90;;;14.07;;
70467;SDS011;57934;51.532;7.684;2023-05-10T09:57:45;27.05;;;13.95;;
70467;SDS011;57934;51.532;7.684;2023-05-10T10:00:18;17.73;;;13.57;;
70467;SDS011;57934;51.532;7.684;2023-05-10T10:02:46;18.08;;;12.98;;
70467;SDS011;57934;51.532;7.684;2023-05-10T10:05:19;24.30;;;14.70;;
70467;SDS011;57934;51.532;7.684;2023-05-10T10:07:45;17.08;;;12.45;;
70467;SDS011;57934;51.532;7.684;2023-05-10T10:10:12;18.15;;;12.40;;
70467;SDS011;57934;51.532;7.684;2023-05-10T10:12:40;16.95;;;12.70;;
70467;SDS011;57934;51.532;7.684;2023-05-10T10:15:07;15.50;;;12.02;;
70467;SDS011;57934;51.532;7.684;2023-05-10T10:17:35;17.08;;;11.52;;
70467;SDS011;57934;51.532;7.684;2023-05-10T10:20:03;14.70;;;11.95;;
70467;SDS011;57934;51.532;7.684;2023-05-10T10:22:29;20.80;;;12.93;;
70467;SDS011;57934;51.532;7.684;2023-05-10T10:24:55;18.17;;;12.85;;
70467;SDS011;57934;51.532;7.684;2023-05-10T10:27:26;15.88;;;11.43;;
70467;SDS011;57934;51.532;7.684;2023-05-10T10:30:39;18.25;;;13.40;;
70467;SDS011;57934;51.532;7.684;2023-05-10T10:36:21;13.85;;;10.52;;
70467;SDS011;57934;51.532;7.684;2023-05-10T10:52:40;14.35;;;9.82;;
70467;SDS011;57934;51.532;7.684;2023-05-10T10:55:06;14.30;;;10.35;;
70467;SDS011;57934;51.532;7.684;2023-05-10T11:02:44;11.40;;;8.00;;
70467;SDS011;57934;51.532;7.684;2023-05-10T11:10:21;10.32;;;6.30;;
70467;SDS011;57934;51.532;7.684;2023-05-10T11:15:52;6.57;;;5.53;;
70467;SDS011;57934;51.532;7.684;2023-05-10T11:18:20;8.00;;;5.35;;
70467;SDS011;57934;51.532;7.684;2023-05-10T11:20:52;6.65;;;5.47;;
70467;SDS011;57934;51.532;7.684;2023-05-10T11:23:22;9.98;;;6.57;;
70467;SDS011;57934;51.532;7.684;2023-05-10T11:25:48;9.95;;;6.78;;
70467;SDS011;57934;51.532;7.684;2023-05-10T11:28:19;7.97;;;6.57;;
70467;SDS011;57934;51.532;7.684;2023-05-10T11:30:45;9.18;;;6.43;;
70467;SDS011;57934;51.532;7.684;2023-05-10T11:33:15;11.35;;;6.68;;
70467;SDS011;57934;51.532;7.684;2023-05-10T11:35:42;13.95;;;7.40;;
70467;SDS011;57934;51.532;7.684;2023-05-10T11:38:09;8.88;;;7.35;;
70467;SDS011;57934;51.532;7.684;2023-05-10T11:40:37;10.18;;;8.10;;
70467;SDS011;57934;51.532;7.684;2023-05-10T11:43:04;15.35;;;11.07;;
70467;SDS011;57934;51.532;7.684;2023-05-10T11:45:34;16.60;;;10.23;;
70467;SDS011;57934;51.532;7.684;2023-05-10T11:48:01;18.95;;;11.57;;
70467;SDS011;57934;51.532;7.684;2023-05-10T11:50:28;17.90;;;10.82;;
70467;SDS011;57934;51.532;7.684;2023-05-10T11:52:55;19.10;;;12.35;;
70467;SDS011;57934;51.532;7.684;2023-05-10T11:55:22;16.45;;;11.30;;
70467;SDS011;57934;51.532;7.684;2023-05-10T11:57:53;18.50;;;11.02;;
70467;SDS011;57934;51.532;7.684;2023-05-10T12:00:20;16.60;;;10.55;;
70467;SDS011;57934;51.532;7.684;2023-05-10T12:02:47;18.17;;;10.32;;
70467;SDS011;57934;51.532;7.684;2023-05-10T12:05:13;14.00;;;8.98;;
70467;SDS011;57934;51.532;7.684;2023-05-10T12:07:40;16.95;;;9.82;;
70467;SDS011;57934;51.532;7.684;2023-05-10T12:12:40;16.55;;;10.05;;
70467;SDS011;57934;51.532;7.684;2023-05-10T12:15:17;13.15;;;9.52;;
70467;SDS011;57934;51.532;7.684;2023-05-10T12:17:45;13.05;;;9.00;;
70467;SDS011;57934;51.532;7.684;2023-05-10T12:20:15;15.60;;;10.07;;
70467;SDS011;57934;51.532;7.684;2023-05-10T12:22:46;15.13;;;10.70;;
70467;SDS011;57934;51.532;7.684;2023-05-10T12:25:15;17.48;;;11.73;;
70467;SDS011;57934;51.532;7.684;2023-05-10T12:27:52;17.58;;;11.50;;
70467;SDS011;57934;51.532;7.684;2023-05-10T12:32:58;23.30;;;13.98;;
70467;SDS011;57934;51.532;7.684;2023-05-10T12:41:05;17.17;;;10.27;;
70467;SDS011;57934;51.532;7.684;2023-05-10T12:43:32;14.43;;;10.35;;
70467;SDS011;57934;51.532;7.684;2023-05-10T12:48:33;16.17;;;10.93;;
70467;SDS011;57934;51.532;7.684;2023-05-10T12:51:00;14.90;;;10.63;;
70467;SDS011;57934;51.532;7.684;2023-05-10T12:53:27;15.63;;;11.05;;
70467;SDS011;57934;51.532;7.684;2023-05-10T12:55:53;14.32;;;10.23;;
70467;SDS011;57934;51.532;7.684;2023-05-10T12:58:20;15.10;;;9.63;;
70467;SDS011;57934;51.532;7.684;2023-05-10T13:00:46;13.57;;;9.77;;
70467;SDS011;57934;51.532;7.684;2023-05-10T13:03:12;10.65;;;9.55;;
70467;SDS011;57934;51.532;7.684;2023-05-10T13:05:38;12.95;;;9.77;;
70467;SDS011;57934;51.532;7.684;2023-05-10T13:08:04;12.50;;;9.95;;
70467;SDS011;57934;51.532;7.684;2023-05-10T13:10:30;13.80;;;10.73;;
70467;SDS011;57934;51.532;7.684;2023-05-10T13:13:00;12.50;;;9.20;;
70467;SDS011;57934;51.532;7.684;2023-05-10T13:15:26;14.35;;;10.10;;
70467;SDS011;57934;51.532;7.684;2023-05-10T13:17:53;13.48;;;9.43;;
70467;SDS011;57934;51.532;7.684;2023-05-10T13:20:20;15.07;;;9.05;;
70467;SDS011;57934;51.532;7.684;2023-05-10T13:22:46;13.05;;;8.57;;
70467;SDS011;57934;51.532;7.684;2023-05-10T13:25:12;11.15;;;7.88;;
70467;SDS011;57934;51.532;7.684;2023-05-10T13:27:39;11.00;;;8.45;;
70467;SDS011;57934;51.532;7.684;2023-05-10T13:30:06;14.98;;;8.95;;
70467;SDS011;57934;51.532;7.684;2023-05-10T13:32:36;11.15;;;8.13;;
70467;SDS011;57934;51.532;7.684;2023-05-10T13:35:03;15.68;;;9.40;;
70467;SDS011;57934;51.532;7.684;2023-05-10T13:37:31;14.65;;;9.13;;
70467;SDS011;57934;51.532;7.684;2023-05-10T13:40:01;12.82;;;9.05;;
70467;SDS011;57934;51.532;7.684;2023-05-10T13:42:27;11.32;;;8.32;;
70467;SDS011;57934;51.532;7.684;2023-05-10T13:44:54;13.18;;;9.50;;
70467;SDS011;57934;51.532;7.684;2023-05-10T13:47:20;14.13;;;9.45;;
70467;SDS011;57934;51.532;7.684;2023-05-10T13:49:47;11.32;;;9.05;;
70467;SDS011;57934;51.532;7.684;2023-05-10T13:52:13;10.13;;;8.23;;
70467;SDS011;57934;51.532;7.684;2023-05-10T13:54:39;14.30;;;8.45;;
70467;SDS011;57934;51.532;7.684;2023-05-10T13:57:05;11.48;;;7.90;;
70467;SDS011;57934;51.532;7.684;2023-05-10T13:59:32;13.23;;;7.82;;
70467;SDS011;57934;51.532;7.684;2023-05-10T14:02:05;9.65;;;7.35;;
70467;SDS011;57934;51.532;7.684;2023-05-10T14:04:32;11.30;;;9.00;;
70467;SDS011;57934;51.532;7.684;2023-05-10T14:07:01;11.40;;;8.57;;
70467;SDS011;57934;51.532;7.684;2023-05-10T14:09:27;11.60;;;8.63;;
70467;SDS011;57934;51.532;7.684;2023-05-10T14:11:53;15.63;;;9.52;;
70467;SDS011;57934;51.532;7.684;2023-05-10T14:14:20;13.30;;;8.25;;
70467;SDS011;57934;51.532;7.684;2023-05-10T14:16:46;10.70;;;7.32;;
70467;SDS011;57934;51.532;7.684;2023-05-10T14:19:12;11.35;;;7.82;;
70467;SDS011;57934;51.532;7.684;2023-05-10T14:21:38;12.63;;;7.82;;
70467;SDS011;57934;51.532;7.684;2023-05-10T14:24:05;11.77;;;7.78;;
70467;SDS011;57934;51.532;7.684;2023-05-10T14:26:32;10.50;;;7.25;;
70467;SDS011;57934;51.532;7.684;2023-05-10T14:29:00;10.15;;;6.65;;
70467;SDS011;57934;51.532;7.684;2023-05-10T14:31:27;10.45;;;7.35;;
70467;SDS011;57934;51.532;7.684;2023-05-10T14:33:54;19.85;;;8.07;;
70467;SDS011;57934;51.532;7.684;2023-05-10T14:36:20;13.05;;;7.15;;
70467;SDS011;57934;51.532;7.684;2023-05-10T14:38:46;10.68;;;8.40;;
70467;SDS011;57934;51.532;7.684;2023-05-10T14:41:12;13.52;;;8.75;;
70467;SDS011;57934;51.532;7.684;2023-05-10T14:43:40;9.52;;;8.15;;
70467;SDS011;57934;51.532;7.684;2023-05-10T14:46:06;9.40;;;7.68;;
70467;SDS011;57934;51.532;7.684;2023-05-10T14:48:33;9.63;;;7.65;;
70467;SDS011;57934;51.532;7.684;2023-05-10T14:50:59;12.15;;;8.50;;
70467;SDS011;57934;51.532;7.684;2023-05-10T14:53:25;11.85;;;8.25;;
70467;SDS011;57934;51.532;7.684;2023-05-10T14:55:51;12.45;;;8.32;;
70467;SDS011;57934;51.532;7.684;2023-05-10T14:58:18;12.88;;;8.80;;
70467;SDS011;57934;51.532;7.684;2023-05-10T15:00:44;15.98;;;9.02;;
70467;SDS011;57934;51.532;7.684;2023-05-10T15:03:10;11.27;;;8.43;;
70467;SDS011;57934;51.532;7.684;2023-05-10T15:05:36;10.30;;;8.75;;
70467;SDS011;57934;51.532;7.684;2023-05-10T15:08:03;9.43;;;7.60;;
70467;SDS011;57934;51.532;7.684;2023-05-10T15:10:31;7.00;;;6.40;;
70467;SDS011;57934;51.532;7.684;2023-05-10T15:12:58;6.90;;;6.28;;
70467;SDS011;57934;51.532;7.684;2023-05-10T15:15:24;6.75;;;6.15;;
70467;SDS011;57934;51.532;7.684;2023-05-10T15:17:50;11.23;;;6.45;;
70467;SDS011;57934;51.532;7.684;2023-05-10T15:20:17;8.52;;;6.43;;
70467;SDS011;57934;51.532;7.684;2023-05-10T15:22:43;9.35;;;6.85;;
70467;SDS011;57934;51.532;7.684;2023-05-10T15:25:09;7.47;;;6.18;;
70467;SDS011;57934;51.532;7.684;2023-05-10T15:27:35;8.77;;;7.88;;
70467;SDS011;57934;51.532;7.684;2023-05-10T15:30:01;9.07;;;6.80;;
70467;SDS011;57934;51.532;7.684;2023-05-10T15:32:27;6.45;;;5.85;;
70467;SDS011;57934;51.532;7.684;2023-05-10T15:34:55;6.70;;;5.57;;
70467;SDS011;57934;51.532;7.684;2023-05-10T15:37:21;9.05;;;5.47;;